Scroll down
FLIGHT INFORMATION
Alaska Airlines

ASA815

At Arrival Gate

KPDX
 PHOG
DATE: 2020-06-30
GATE:  -
GATE DEPARTURE: 20:46
TAKEOFF: 20:55
DATE: 2020-07-01
GATE:  -
LANDING: 02:22
GATE ARRIVAL: 02:28
FLIGHT DATA
Crew: 
Speed: 
475 kts
Altitude: 
36,071 ft
Stage Length: 
2,225.7 nm
Block Time: 
5.6 hrs
Flight Time: 
5.5 hrs
Fuel Used: 
31,487 lb
Cleared Route: 
TRACK DATA
50,000 ft 1,000 kts
AIRCRAFT INFO AND CUMULATIVE STATS
Aircraft Type: 
B738SSW
Registration: 
SELCAL: 
JKDR
MSN/LN: 
35682 / 2365
Operator: 
Total Flights: 
16
Total Block Time: 
74.1 hrs
Total Flight Time: 
70.3 hrs
Total Fuel Used: 
284,019 lb
DATALINK LOG | Newest first | Current as of: 2021-09-21 07:48:13
LABEL SEQUENCE CONTENT Dn/Up
QD302902:28 10.4▼ Dn
QC242302:22▼ Dn
2U1551PHOG 302254Z 05017G25KT 10SM CLR 33/18 A2995 RMK AO2 PK WND 05028/2234 SLP148 T03280178▲ Up
5U0856PHKO 010334Z 21010KT 10SM FEW030 BKN050 30/20 A2995▲ Up
5U0856PHOG 010334Z 05016G25KT 10SM FEW030 SCT050 33/18 A2995▲ Up
2S3533PHOG▼ Dn
5S3533PHOG PHKO▼ Dn
QB575920:55▼ Dn
QA485020:46 41.9▼ Dn
Q01416[LINK ACK]▲ Up
Q01416[LINK TEST]▼ Dn


AIRCRAFT HISTORY
FLIGHT DATE FLIGHT NO. ORIGIN DESTINATION CLEARED ROUTE BLOCK TIME FLIGHT TIME FUEL USED PILOT
2020-10-03ASA1003KRNO KSLC KRNO ZEFFR EPOSE WITTT DATTT BLKJK LLC BAM SPRUZ BVL KNOLE WAATS RAACE CRKIT OQUIR PITTT CEEDR FFU RW34L19.4 hrs19.1 hrs0 lbRandall Smith
2020-08-31ASA5180PAJN KRNO PAJN CGLNB BARLO RADKY SQMNB LVD ANN DUGGS QQ YYJ SEA POWEL LKV HARTT JAGOM EELZA BEETH HIWAA BACRT FMG RW34L3.1 hrs2.9 hrs15,613 lbPete L.
2020-08-27ASA6829KPHX PAJN KPHX SPRKY GOALY QUAKY SNOBL CARTL LOFTS RIMMM GCN ILC BAM REO IMB LTJ OLM TOU CFSKH YZT PRYCE DUGGS ANN LVD HOODS SSR RW084.6 hrs4.4 hrs24,611 lbPete L.
2020-07-28ASA292KPDX KPHX KPDX KOATA NEERO WINEN CORKR NAVHO DRK MAIER KPHX2.4 hrs2.3 hrs11,876 lbRyan Syferd
2020-07-14ASA539KSAN KPDX KSAN WNFLD KERNL GYWNN PADRZ HFMNN CHKNN RIDDL LANDO EHF SHIMR LKV BTG KSEA2.2 hrs2.1 hrs12,701 lbMichael Roth
2020-07-13ASA818PHOG KSAN PHOG BARBY SARDS BONUS DEREC BYROW FITES 22N50 25N41 27N35 29N30 ELKEY SXC KSAN5.3 hrs5.1 hrs29,746 lbRyan Syferd
2020-06-30ASA815KPDX PHOG 5.6 hrs5.5 hrs31,487 lbRyan Syferd
2020-06-30ASA194PANC KPDX PANC TED JOH ALJNB HUMPY WOXOX LAIRE BKA DUGGS YYJ CFQWB ORCUS SEA KPDX3.3 hrs3.2 hrs16,377 lbRyan Syferd
2020-06-29ASA111PHNL PANC PHNL HNL CKH GRITL BAMBO JOELE LARYN ATINE BERLE ZIGIE 35N58 46N60 50N58 55N55 HOM PANC6 hrs5.8 hrs30,529 lb-HIDDEN-
2020-06-06ASA606PHKO PHNL 1 hrs0.6 hrs5,097 lbChemtrails
2020-05-29ASA815KSEA PHKO KSEA SEA ELMAA HQM SEDAR ZANNG ZAGER ZINNO ZEMOM ZOULU APACK UPP PHKO6.3 hrs6 hrs32,237 lbRyan Syferd
2020-05-28ASA56KATL KSEA KATL VUZ ARG SGF BUM HCT SNY CYS LAR CKW PIH DNJ BEAMO PDT KSEA5 hrs4.7 hrs25,200 lbRyan Syferd
2020-03-24ASA211KMSY KATL 1.4 hrs1.2 hrs8,637 lb-HIDDEN-
2020-03-20ASA320KCRP KMSY 2.3 hrs1.9 hrs11,483 lbCharles Harris
2020-02-27ASA519KDFW KCRP 1.2 hrs1 hrs7,311 lbChemtrails
2020-02-04ASA5847KBOS KDFW 4.8 hrs4.6 hrs25,692 lbPete L.